Data for 05/29/2007

Time Sea-Level Adjusted Pressure Absolute Pressure Temperature Relative Humidity Dew Point   
(mb) (inHg) (mb) (inHg) (C) (F) (%) (C) (F)
00:05 1021 30.15 850 25.1 3.1 37.5 94 2.1 35.8
00:10 1021 30.15 850 25.1 3 37.3 93 2 35.5
00:15 1021 30.15 850 25.1 2.9 37.2 93 1.9 35.4
00:20 1021 30.15 850 25.1 2.8 37 94 1.9 35.5
00:25 1021 30.15 850 25.1 2.6 36.7 95 1.8 35.3
00:30 1021 30.15 850 25.1 2.2 36 94 1.4 34.5
00:35 1021 30.15 850 25.1 1.7 35.1 95 1 33.8
00:40 1021 30.15 850 25.1 1.5 34.7 96 0.9 33.6
00:45 1021 30.15 850 25.1 1.6 34.9 96 1.1 33.9
00:50 1021 30.15 850 25.1 1.6 34.8 95 0.9 33.6
00:55 1021 30.15 850 25.1 1.4 34.4 96 0.8 33.5
01:00 1021 30.15 850 25.1 1.2 34.2 96 0.7 33.2
01:05 1021 30.15 850 25.1 0.9 33.7 97 0.5 32.8
01:10 1021 30.15 850 25.1 0.8 33.5 97 0.4 32.8
01:15 1021 30.15 850 25.1 0.8 33.4 97 0.4 32.7
01:20 1021 30.15 850 25.1 0.8 33.4 97 0.4 32.7
01:25 1021 30.15 850 25.1 0.7 33.3 97 0.4 32.7
01:30 1021 30.15 850 25.1 0.8 33.4 97 0.4 32.7
01:35 1021 30.15 850 25.1 0.8 33.5 97 0.4 32.8
01:40 1021 30.15 850 25.1 0.9 33.6 97 0.5 32.9
01:45 1021 30.15 850 25.1 1 33.7 97 0.5 32.9
01:50 1021 30.15 850 25.1 1 33.8 97 0.5 33
01:55 1021 30.15 850 25.1 1.2 34.1 96 0.7 33.2
02:00 1021 30.15 850 25.1 1.3 34.3 96 0.7 33.2
02:05 1021 30.15 850 25.1 1.3 34.4 96 0.7 33.2
02:10 1021 30.15 850 25.1 1.4 34.5 95 0.7 33.3
02:15 1021 30.15 850 25.1 1.4 34.5 95 0.7 33.2
02:20 1021 30.15 850 25.1 1.4 34.5 95 0.7 33.2
02:25 1021 30.15 850 25.1 1.4 34.5 95 0.6 33.1
02:30 1021 30.15 850 25.1 1.4 34.5 95 0.6 33.2
02:35 1021 30.15 850 25.1 1.5 34.7 95 0.8 33.4
02:40 1021 30.15 850 25.1 1.5 34.7 95 0.7 33.3
02:45 1021 30.15 850 25.1 1.5 34.6 95 0.7 33.3
02:50 1021 30.15 850 25.1 1.4 34.4 95 0.6 33.2
02:55 1021 30.15 850 25.1 1.2 34.2 95 0.6 33
03:00 1021 30.15 850 25.1 1.1 34 96 0.5 33
03:05 1021 30.15 850 25.1 1.1 33.9 96 0.5 32.9
03:10 1021 30.15 850 25.1 1 33.7 96 0.4 32.8
03:15 1021 30.15 850 25.1 0.9 33.6 96 0.4 32.7
03:20 1021 30.15 850 25.1 0.8 33.5 97 0.3 32.6
03:25 1021 30.15 850 25.1 0.8 33.4 97 0.3 32.6
03:30 1021 30.15 850 25.1 0.7 33.2 97 0.3 32.5
03:35 1021 30.15 850 25.1 0.6 33.2 97 0.3 32.5
03:40 1021 30.15 850 25.1 0.6 33.1 98 0.3 32.5
03:45 1021 30.15 850 25.1 0.7 33.3 97 0.3 32.6
03:50 1021 30.15 850 25.1 0.8 33.4 97 0.4 32.8
03:55 1021 30.15 850 25.1 0.9 33.6 97 0.5 32.8
04:00 1021 30.15 850 25.1 0.9 33.6 97 0.5 32.8
04:05 1021 30.15 851 25.13 1 33.8 97 0.5 32.9
04:10 1021 30.15 851 25.13 1 33.8 97 0.5 32.9
04:15 1021 30.15 851 25.13 1.1 33.9 97 0.6 33.1
04:20 1021 30.15 851 25.13 1.2 34.1 97 0.7 33.3
04:25 1021 30.15 851 25.13 1.2 34.1 97 0.7 33.3
04:30 1021 30.15 851 25.13 1.2 34.2 97 0.8 33.4
04:35 1022 30.18 851 25.13 1.3 34.3 97 0.8 33.4
04:40 1022 30.18 851 25.13 1.1 33.9 97 0.6 33.1
04:45 1022 30.18 851 25.13 0.9 33.7 97 0.5 32.9
04:50 1022 30.18 851 25.13 0.8 33.5 97 0.4 32.7
04:55 1022 30.18 851 25.13 0.7 33.3 97 0.3 32.5
05:00 1022 30.18 851 25.13 0.7 33.2 97 0.3 32.6
05:05 1022 30.18 851 25.13 0.7 33.2 97 0.3 32.5
05:10 1022 30.18 851 25.13 0.7 33.3 97 0.4 32.7
05:15 1022 30.18 851 25.13 0.7 33.3 97 0.4 32.7
05:20 1022 30.18 851 25.13 0.7 33.2 97 0.3 32.5
05:25 1022 30.18 851 25.13 0.6 33.1 98 0.3 32.5
05:30 1022 30.18 851 25.13 0.5 32.8 98 0.1 32.2
05:35 1022 30.18 851 25.13 0.4 32.7 98 0.1 32.2
05:40 1022 30.18 851 25.13 0.3 32.6 98 0.1 32.1
05:45 1022 30.18 851 25.13 0.3 32.6 98 0.1 32.1
05:50 1022 30.18 851 25.13 0.3 32.6 98 0.1 32.2
05:55 1022 30.18 851 25.13 0.4 32.7 98 0.1 32.3
06:00 1022 30.18 851 25.13 0.4 32.7 98 0.2 32.3
06:05 1022 30.18 851 25.13 0.4 32.7 98 0.1 32.2
06:10 1022 30.18 851 25.13 0.4 32.7 98 0.1 32.2
06:15 1022 30.18 851 25.13 0.4 32.7 98 0.2 32.3
06:20 1022 30.18 851 25.13 0.4 32.8 98 0.2 32.3
06:25 1022 30.18 851 25.13 0.4 32.8 98 0.2 32.3
06:30 1022 30.18 851 25.13 0.4 32.7 98 0.2 32.3
06:35 1022 30.18 851 25.13 0.4 32.7 98 0.1 32.3
06:40 1022 30.18 851 25.13 0.4 32.7 98 0.2 32.3
06:45 1022 30.18 851 25.13 0.4 32.7 98 0.2 32.3
06:50 1022 30.18 851 25.13 0.3 32.6 98 0.1 32.2
06:55 1022 30.18 851 25.13 0.4 32.7 99 0.2 32.3
07:00 1022 30.18 851 25.13 0.3 32.5 99 0.1 32.2
07:05 1022 30.18 851 25.13 0.3 32.5 99 0.1 32.2
07:10 1022 30.18 851 25.13 0.3 32.6 99 0.1 32.2
07:15 1022 30.18 851 25.13 0.3 32.5 99 0.1 32.2
07:20 1022 30.18 851 25.13 0.3 32.5 99 0.1 32.2
07:25 1022 30.18 851 25.13 0.3 32.5 99 0.1 32.2
07:30 1022 30.18 852 25.16 0.3 32.5 99 0.1 32.2
07:35 1022 30.18 852 25.16 0.3 32.6 99 0.1 32.3
07:40 1022 30.18 852 25.16 0.4 32.7 99 0.2 32.4
07:45 1022 30.18 852 25.16 0.4 32.7 99 0.2 32.4
07:50 1023 30.21 852 25.16 0.4 32.6 99 0.2 32.3
07:55 1023 30.21 852 25.16 0.4 32.7 99 0.2 32.4
08:00 1023 30.21 852 25.16 0.4 32.7 99 0.2 32.4
08:05 1023 30.21 852 25.16 0.4 32.8 99 0.3 32.5
08:10 1023 30.21 852 25.16 0.5 32.9 99 0.3 32.5
08:15 1023 30.21 852 25.16 0.5 32.9 99 0.3 32.6
08:20 1023 30.21 852 25.16 0.6 33 99 0.4 32.7
08:25 1023 30.21 852 25.16 0.7 33.2 99 0.5 32.9
08:30 1023 30.21 852 25.16 0.8 33.4 99 0.6 33
08:35 1023 30.21 852 25.16 0.8 33.5 99 0.6 33.1
08:40 1023 30.21 852 25.16 1 33.8 99 0.8 33.4
08:45 1023 30.21 852 25.16 1 33.8 98 0.8 33.4
08:50 1023 30.21 852 25.16 1.1 34 98 0.9 33.6
08:55 1023 30.21 852 25.16 1.2 34.2 99 1 33.8
09:00 1023 30.21 852 25.16 1.4 34.6 98 1.2 34.1
09:05 1023 30.21 852 25.16 1.5 34.7 98 1.2 34.1
09:10 1023 30.21 853 25.19 1.6 35 98 1.3 34.4
09:15 1023 30.21 853 25.19 1.8 35.2 97 1.4 34.4
09:20 1023 30.21 853 25.19 1.8 35.2 96 1.3 34.3
09:25 1023 30.21 853 25.19 1.8 35.2 96 1.2 34.1
09:30 1023 30.21 853 25.19 1.8 35.3 96 1.3 34.3
09:35 1024 30.24 853 25.19 2 35.6 95 1.3 34.4
09:40 1023 30.21 853 25.19 2.1 35.7 95 1.4 34.4
09:45 1023 30.21 853 25.19 2.2 36 94 1.4 34.5
09:50 1023 30.21 853 25.19 2.4 36.3 93 1.4 34.5
09:55 1023 30.21 853 25.19 2.4 36.3 93 1.4 34.5
10:00 1024 30.24 853 25.19 2.6 36.7 93 1.6 34.8
10:05 1024 30.24 853 25.19 2.7 36.9 92 1.6 34.8
10:10 1024 30.24 853 25.19 2.8 37.1 92 1.6 34.9
10:15 1024 30.24 853 25.19 3 37.4 92 1.7 35.1
10:20 1024 30.24 853 25.19 3.2 37.8 90 1.7 35.1
10:25 1024 30.24 853 25.19 3.1 37.6 89 1.5 34.7
10:30 1024 30.24 853 25.19 3.1 37.5 91 1.7 35
10:35 1024 30.24 853 25.19 3.1 37.6 90 1.7 35
10:40 1024 30.24 853 25.19 3.3 37.9 90 1.7 35.1
10:45 1024 30.24 853 25.19 3.5 38.3 88 1.8 35.2
10:50 1024 30.24 853 25.19 3.7 38.7 87 1.7 35.1
10:55 1024 30.24 853 25.19 3.7 38.7 88 2 35.5
11:00 1024 30.24 853 25.19 3.8 38.8 87 1.9 35.3
11:05 1024 30.24 853 25.19 3.7 38.6 88 1.8 35.2
11:10 1024 30.24 853 25.19 3.9 39 86 1.7 35.1
11:15 1024 30.24 853 25.19 3.7 38.7 87 1.8 35.2
11:20 1024 30.24 853 25.19 3.7 38.6 88 1.8 35.3
11:25 1024 30.24 853 25.19 3.9 38.9 87 1.8 35.3
11:30 1024 30.24 853 25.19 3.9 39.1 86 1.8 35.2
11:35 1024 30.24 853 25.19 3.7 38.6 88 1.8 35.2
11:40 1024 30.24 853 25.19 3.9 38.9 88 2 35.6
11:45 1024 30.24 853 25.19 4 39.3 86 2 35.6
11:50 1024 30.24 853 25.19 4.2 39.5 86 2 35.7
11:55 1024 30.24 853 25.19 4.3 39.8 87 2.3 36.1
12:00 1024 30.24 853 25.19 4.5 40.1 86 2.3 36.2
12:05 1024 30.24 853 25.19 4.6 40.3 84 2.1 35.8
12:10 1024 30.24 854 25.22 4.8 40.7 84 2.3 36.1
12:15 1024 30.24 854 25.22 4.9 40.7 83 2.3 36.1
12:20 1024 30.24 854 25.22 4.7 40.5 85 2.4 36.4
12:25 1024 30.24 854 25.22 5.1 41.2 86 3 37.4
12:30 1024 30.24 854 25.22 5.2 41.3 83 2.5 36.6
12:35 1024 30.24 854 25.22 5.2 41.3 82 2.4 36.4
12:40 1024 30.24 854 25.22 5.1 41.3 82 2.4 36.3
12:45 1024 30.24 854 25.22 5.3 41.6 81 2.4 36.2
12:50 1024 30.24 854 25.22 5.5 41.8 81 2.5 36.5
12:55 1024 30.24 854 25.22 5.2 41.3 83 2.5 36.6
13:00 1024 30.24 853 25.19 5.4 41.7 81 2.5 36.4
13:05 1024 30.24 853 25.19 5.5 42 81 2.5 36.5
13:10 1024 30.24 854 25.22 5.8 42.4 80 2.6 36.7
13:15 1024 30.24 854 25.22 5.7 42.3 81 2.8 37
13:20 1024 30.24 853 25.19 5.8 42.4 80 2.7 36.8
13:25 1024 30.24 853 25.19 6 42.8 79 2.7 36.9
13:30 1024 30.24 853 25.19 6.1 43 80 2.9 37.1
13:35 1024 30.24 853 25.19 6.5 43.6 79 3 37.5
13:40 1024 30.24 854 25.22 6.7 44.1 80 3.5 38.3
13:45 1024 30.24 853 25.19 6.9 44.4 77 3.2 37.8
13:50 1024 30.24 853 25.19 7 44.6 79 3.7 38.7
13:55 1024 30.24 853 25.19 7.4 45.3 78 3.7 38.7
14:00 1024 30.24 853 25.19 7.8 46 76 3.9 39
14:05 1024 30.24 853 25.19 7.7 45.8 74 3.3 38
14:10 1024 30.24 853 25.19 7.6 45.8 73 3.2 37.7
14:15 1024 30.24 853 25.19 8.1 46.6 75 3.9 39.1
14:20 1024 30.24 853 25.19 8.7 47.7 76 4.7 40.5
14:25 1024 30.24 853 25.19 9.7 49.5 69 4.4 39.9
14:30 1024 30.24 853 25.19 9.9 49.8 71 4.9 40.8
14:35 1024 30.24 853 25.19 8.9 48.1 71 3.9 39
14:40 1024 30.24 853 25.19 8.9 48.1 71 3.9 39
14:45 1024 30.24 853 25.19 9.5 49.1 68 4 39.2
14:50 1024 30.24 853 25.19 10.1 50.1 66 4 39.2
14:55 1024 30.24 853 25.19 10.7 51.3 65 4.4 39.9
15:00 1024 30.24 853 25.19 10.8 51.4 67 4.9 40.8
15:05 1024 30.24 853 25.19 10.9 51.6 61 3.7 38.7
15:10 1024 30.24 853 25.19 10.8 51.5 63 4.2 39.5
15:15 1024 30.24 853 25.19 10.8 51.4 63 4 39.2
15:20 1024 30.24 853 25.19 10 50.1 63 3.4 38.1
15:25 1024 30.24 853 25.19 10.4 50.8 63 3.7 38.6
15:30 1024 30.24 853 25.19 10.2 50.4 64 3.8 38.8
15:35 1024 30.24 853 25.19 10.3 50.6 63 3.6 38.5
15:40 1024 30.24 853 25.19 10.6 51.1 61 3.5 38.3
15:45 1024 30.24 853 25.19 10.2 50.4 64 3.8 38.9
15:50 1024 30.24 853 25.19 10 50 67 4.1 39.4
15:55 1024 30.24 853 25.19 10.1 50.2 70 4.8 40.7
16:00 1024 30.24 853 25.19 10.3 50.6 61 3.2 37.7
16:05 1024 30.24 853 25.19 9.9 49.9 67 4.2 39.6
16:10 1024 30.24 853 25.19 9.5 49 67 3.8 38.8
16:15 1024 30.24 853 25.19 9.2 48.5 69 3.8 38.8
16:20 1024 30.24 853 25.19 9.5 49.1 67 3.6 38.6
16:25 1024 30.24 853 25.19 9.2 48.6 68 3.7 38.7
16:30 1024 30.24 853 25.19 9 48.1 70 3.7 38.7
16:35 1024 30.24 853 25.19 9 48.2 68 3.5 38.3
16:40 1024 30.24 853 25.19 9.3 48.7 65 3 37.5
16:45 1024 30.24 853 25.19 9.1 48.4 67 3.4 38.2
16:50 1024 30.24 853 25.19 9.2 48.6 67 3.4 38
16:55 1024 30.24 853 25.19 9.5 49.1 64 3 37.5
17:00 1024 30.24 853 25.19 9.4 49 66 3.5 38.4
17:05 1024 30.24 853 25.19 10 50 63 3.3 38
17:10 1024 30.24 853 25.19 10.3 50.5 62 3.4 38.1
17:15 1024 30.24 853 25.19 10.4 50.7 61 3.3 38
17:20 1024 30.24 853 25.19 10.1 50.1 61 3 37.4
17:25 1024 30.24 853 25.19 10.5 50.8 61 3.3 38
17:30 1024 30.24 853 25.19 10.5 51 61 3.3 38
17:35 1024 30.24 853 25.19 10.4 50.7 63 3.6 38.4
17:40 1024 30.24 853 25.19 10.5 50.9 60 3.1 37.5
17:45 1024 30.24 853 25.19 10.6 51 61 3.5 38.2
17:50 1024 30.24 853 25.19 10.7 51.3 61 3.5 38.4
17:55 1024 30.24 853 25.19 10.7 51.3 60 3.4 38.1
18:00 1024 30.24 853 25.19 10.6 51 61 3.5 38.2
18:05 1024 30.24 853 25.19 9.9 49.8 65 3.6 38.5
18:10 1024 30.24 853 25.19 9.8 49.7 68 4.2 39.5
18:15 1024 30.24 853 25.19 9.6 49.3 72 4.8 40.6
18:20 1024 30.24 853 25.19 9.3 48.8 73 4.7 40.4
18:25 1024 30.24 853 25.19 9.3 48.7 73 4.7 40.4
18:30 1024 30.24 853 25.19 9.2 48.6 73 4.7 40.4
18:35 1024 30.24 853 25.19 9.5 49.1 70 4.4 39.9
18:40 1024 30.24 853 25.19 9.8 49.7 68 4.2 39.6
18:45 1024 30.24 853 25.19 9.6 49.3 70 4.5 40.1
18:50 1024 30.24 853 25.19 9.5 49.2 70 4.4 39.9
18:55 1024 30.24 853 25.19 9.8 49.6 68 4.2 39.6
19:00 1024 30.24 853 25.19 10 50 68 4.3 39.8
19:05 1024 30.24 853 25.19 10.9 51.6 61 3.8 38.8
19:10 1024 30.24 853 25.19 10.8 51.5 62 3.8 38.9
19:15 1024 30.24 853 25.19 10.8 51.4 60 3.3 38
19:20 1024 30.24 853 25.19 10.7 51.2 62 3.7 38.6
19:25 1024 30.24 853 25.19 10.3 50.5 64 3.8 38.8
19:30 1024 30.24 853 25.19 10.4 50.7 64 3.9 39
19:35 1024 30.24 853 25.19 10.4 50.7 63 3.6 38.6
19:40 1024 30.24 853 25.19 10.2 50.3 63 3.5 38.3
19:45 1024 30.24 853 25.19 10.2 50.4 61 3.1 37.6
19:50 1024 30.24 853 25.19 10.2 50.3 63 3.5 38.2
19:55 1024 30.24 853 25.19 10.2 50.4 62 3.3 38
20:00 1024 30.24 853 25.19 10.2 50.4 63 3.6 38.5
20:05 1024 30.24 853 25.19 10.2 50.3 65 4 39.2
20:10 1024 30.24 853 25.19 10.1 50.2 66 4 39.2
20:15 1024 30.24 853 25.19 10 49.9 66 3.9 39.1
20:20 1024 30.24 853 25.19 9.9 49.9 66 3.8 38.9
20:25 1024 30.24 853 25.19 9.9 49.7 65 3.6 38.5
20:30 1024 30.24 853 25.19 9.8 49.7 65 3.7 38.6
20:35 1024 30.24 853 25.19 9.8 49.6 66 3.7 38.7
20:40 1024 30.24 853 25.19 9.7 49.5 68 4.1 39.4
20:45 1024 30.24 853 25.19 9.5 49.1 68 3.8 38.8
20:50 1024 30.24 853 25.19 9.2 48.6 67 3.4 38.1
20:55 1024 30.24 853 25.19 9.2 48.5 68 3.7 38.7
21:00 1024 30.24 853 25.19 9.3 48.7 68 3.7 38.7
21:05 1024 30.24 853 25.19 9.3 48.7 68 3.8 38.8
21:10 1024 30.24 853 25.19 9.2 48.6 72 4.4 40
21:15 1024 30.24 853 25.19 9.2 48.5 74 4.9 40.8
21:20 1024 30.24 853 25.19 9 48.2 77 5.2 41.3
21:25 1024 30.24 853 25.19 8.7 47.6 80 5.3 41.6
21:30 1024 30.24 853 25.19 8.5 47.2 82 5.5 41.9
21:35 1024 30.24 854 25.22 8.4 47.2 82 5.5 41.9
21:40 1024 30.24 854 25.22 8.5 47.3 82 5.5 42
21:45 1024 30.24 854 25.22 8.6 47.4 82 5.7 42.2
21:50 1024 30.24 854 25.22 8.4 47.2 82 5.5 41.9
21:55 1025 30.27 854 25.22 8.3 47 81 5.3 41.5
22:00 1025 30.27 854 25.22 8.2 46.7 81 5.1 41.2
22:05 1025 30.27 854 25.22 8.1 46.6 83 5.5 41.8
22:10 1025 30.27 854 25.22 7.9 46.1 83 5.2 41.3
22:15 1025 30.27 854 25.22 7.7 45.8 82 4.9 40.8
22:20 1025 30.27 854 25.22 7.6 45.7 82 4.8 40.7
22:25 1025 30.27 854 25.22 7.5 45.5 84 4.9 40.8
22:30 1025 30.27 854 25.22 7.4 45.4 85 5 41
22:35 1024 30.24 854 25.22 7.3 45.2 84 4.8 40.6
22:40 1024 30.24 854 25.22 7.2 44.9 83 4.5 40.2
22:45 1024 30.24 854 25.22 7.1 44.8 83 4.5 40.1
22:50 1024 30.24 854 25.22 7 44.6 83 4.3 39.8
22:55 1024 30.24 854 25.22 7 44.5 83 4.3 39.7
23:00 1025 30.27 854 25.22 7 44.6 82 4.1 39.4
23:05 1025 30.27 854 25.22 7.1 44.7 81 4.1 39.3
23:10 1025 30.27 854 25.22 7.1 44.8 82 4.3 39.7
23:15 1025 30.27 854 25.22 7.1 44.8 83 4.3 39.8
23:20 1024 30.24 854 25.22 7 44.5 84 4.5 40
23:25 1024 30.24 854 25.22 6.8 44.3 84 4.2 39.6
23:30 1024 30.24 854 25.22 6.7 44.1 86 4.6 40.3
23:35 1024 30.24 854 25.22 6.5 43.7 87 4.5 40.1
23:40 1024 30.24 854 25.22 6.4 43.4 88 4.5 40.1
23:45 1024 30.24 854 25.22 6.3 43.3 88 4.5 40
23:50 1024 30.24 854 25.22 6.2 43.2 88 4.4 39.8
23:55 1024 30.24 854 25.22 6.2 43.2 86 4.2 39.5
24:00 1024 30.24 854 25.22 6.2 43.2 87 4.2 39.5